Time;durP1;ratioP1;P1;durP2;ratioP2;P2;SDS_P1;SDS_P2;PMS_P1;PMS_P2;Temp;Humidity;BMP_temperature;BMP_pressure;BME280_temperature;BME280_humidity;BME280_pressure;Samples;Min_cycle;Max_cycle;Signal;HPM_P1;HPM_P2
2022/04/01 00:00:55;;;;;;;1999.90;999.90;;;;;;;-0.58;40.04;99938.41;4907646;28;97331;-75
2022/04/01 00:03:22;;;;;;;1999.90;999.90;;;;;;;-0.89;41.08;99940.22;4912430;28;98582;-75
2022/04/01 00:05:51;;;;;;;1999.90;999.90;;;;;;;-1.03;41.77;99938.63;4915798;28;98073;-74
2022/04/01 00:08:19;;;;;;;1999.90;999.90;;;;;;;-1.11;42.21;99942.50;4916664;28;98631;-75
2022/04/01 00:10:47;;;;;;;1999.90;999.90;;;;;;;-0.67;40.95;99940.56;4914850;28;97130;-75
2022/04/01 00:13:14;;;;;;;1999.90;999.90;;;;;;;-1.13;43.28;99949.38;4915339;28;98460;-74
2022/04/01 00:15:43;;;;;;;1999.90;999.90;;;;;;;-1.27;43.25;99950.34;4921038;28;98155;-74
2022/04/01 00:18:11;;;;;;;1999.90;999.90;;;;;;;-1.49;46.83;99940.44;4922703;28;98894;-74
2022/04/01 00:20:40;;;;;;;1999.90;999.90;;;;;;;-1.49;43.75;99939.53;4923356;28;98030;-73
2022/04/01 00:23:07;;;;;;;1999.90;999.90;;;;;;;-1.57;43.68;99926.06;4924351;28;99376;-75
2022/04/01 00:25:36;;;;;;;1999.90;999.90;;;;;;;-1.64;43.55;99933.47;4924477;28;98755;-75
2022/04/01 00:28:04;;;;;;;1999.90;999.90;;;;;;;-1.71;43.10;99934.84;4927170;28;98816;-73
2022/04/01 00:30:33;;;;;;;1999.90;999.90;;;;;;;-1.77;43.90;99949.22;4919019;28;97522;-75
2022/04/01 00:33:05;;;;;;;1999.90;999.90;;;;;;;-1.88;45.18;99946.00;4919004;28;98055;-75
2022/04/01 00:35:33;;;;;;;1999.90;999.90;;;;;;;-1.96;44.28;99953.41;4900938;28;97579;-75
2022/04/01 00:38:01;;;;;;;1999.90;999.90;;;;;;;-2.02;43.86;99945.25;4913721;28;97854;-78
2022/04/01 00:40:30;;;;;;;1999.90;999.90;;;;;;;-2.08;47.16;99957.00;4912797;28;98207;-75
2022/04/01 00:42:58;;;;;;;1999.90;999.90;;;;;;;-2.07;45.25;99959.69;4909308;28;97647;-75
2022/04/01 00:45:25;;;;;;;1999.90;999.90;;;;;;;-2.04;44.49;99951.16;4916191;28;97915;-74
2022/04/01 00:47:54;;;;;;;1999.90;999.90;;;;;;;-1.50;44.86;99946.44;4906803;28;100415;-74
2022/04/01 00:50:23;;;;;;;1999.90;999.90;;;;;;;-1.19;46.13;99938.59;4913876;28;98356;-75
2022/04/01 00:52:52;;;;;;;1999.90;999.90;;;;;;;-1.62;46.91;99934.44;4918562;28;97191;-74
2022/04/01 00:55:21;;;;;;;1999.90;999.90;;;;;;;-1.76;46.56;99930.19;4899273;28;97847;-76
2022/04/01 00:57:49;;;;;;;1999.90;999.90;;;;;;;-1.85;46.20;99927.94;4917607;28;99045;-73
2022/04/01 01:00:19;;;;;;;1999.90;999.90;;;;;;;-1.91;46.65;99946.72;4913890;28;97429;-74
2022/04/01 01:02:47;;;;;;;1999.90;999.90;;;;;;;-1.95;46.62;99938.66;4917696;28;98088;-74
2022/04/01 01:05:16;;;;;;;1999.90;999.90;;;;;;;-1.94;46.77;99940.44;4926534;28;97953;-77
2022/04/01 01:07:45;;;;;;;1999.90;999.90;;;;;;;-2.00;46.02;99935.78;4917934;28;98973;-74
2022/04/01 01:10:16;;;;;;;1999.90;999.90;;;;;;;-2.04;46.55;99949.47;4914207;28;97219;-75
2022/04/01 01:12:44;;;;;;;1999.90;999.90;;;;;;;-2.07;45.95;99938.84;4917278;28;99327;-76
2022/04/01 01:15:14;;;;;;;1999.90;999.90;;;;;;;-2.11;46.29;99931.66;4899329;28;99239;-74
2022/04/01 01:17:42;;;;;;;1999.90;999.90;;;;;;;-2.16;47.12;99927.91;4907229;28;98528;-75
2022/04/01 01:20:15;;;;;;;1999.90;999.90;;;;;;;-2.21;47.10;99918.91;4912909;28;96898;-75
2022/04/01 01:22:43;;;;;;;1999.90;999.90;;;;;;;-2.23;46.66;99930.94;4911046;28;97316;-74
2022/04/01 01:25:13;;;;;;;1999.90;999.90;;;;;;;-2.28;48.08;99931.47;4917241;28;97648;-76
2022/04/01 01:27:43;;;;;;;1999.90;999.90;;;;;;;-2.28;46.99;99931.47;4901062;28;101770;-74
2022/04/01 01:30:11;;;;;;;1999.90;999.90;;;;;;;-2.27;46.55;99928.06;4918171;28;97628;-76
2022/04/01 01:32:39;;;;;;;1999.90;999.90;;;;;;;-2.25;46.64;99934.25;4919850;28;96954;-74
2022/04/01 01:35:09;;;;;;;1999.90;999.90;;;;;;;-2.23;45.83;99935.22;4917116;28;99332;-74
2022/04/01 01:37:37;;;;;;;1999.90;999.90;;;;;;;-2.24;46.21;99931.75;4915869;28;98880;-74
2022/04/01 01:40:06;;;;;;;1999.90;999.90;;;;;;;-2.21;46.09;99939.72;4914664;28;97795;-76
2022/04/01 01:42:35;;;;;;;1999.90;999.90;;;;;;;-2.23;46.26;99935.22;4930031;28;97998;-75
2022/04/01 01:45:05;;;;;;;1999.90;999.90;;;;;;;-2.22;45.89;99929.22;4898917;28;100829;-75
2022/04/01 01:47:32;;;;;;;1999.90;999.90;;;;;;;-2.26;46.32;99932.47;4916106;28;99805;-76
2022/04/01 01:55:31;;;;;;;1999.90;999.90;;;;;;;-2.36;46.80;99933.63;4901741;28;99791;-73
2022/04/01 01:58:05;;;;;;;1999.90;999.90;;;;;;;-2.39;46.64;99938.66;4917451;28;98716;-74
2022/04/01 02:00:37;;;;;;;1999.90;999.90;;;;;;;-2.39;46.75;99942.97;4917978;28;97673;-73
2022/04/01 02:03:05;;;;;;;1999.90;999.90;;;;;;;-2.39;46.58;99933.47;4917074;28;98262;-76
2022/04/01 02:05:35;;;;;;;1999.90;999.90;;;;;;;-2.36;46.50;99932.75;4919148;28;100012;-74
2022/04/01 02:08:05;;;;;;;1999.90;999.90;;;;;;;-2.37;46.72;99930.94;4922197;28;97761;-73
2022/04/01 02:10:34;;;;;;;1999.90;999.90;;;;;;;-1.84;47.02;99921.91;4915244;28;97077;-74
2022/04/01 02:13:03;;;;;;;1999.90;999.90;;;;;;;-2.11;46.86;99928.19;4915135;28;97768;-73
2022/04/01 02:15:33;;;;;;;1999.90;999.90;;;;;;;-2.21;47.65;99918.91;4913782;28;100838;-74
2022/04/01 02:18:04;;;;;;;1999.90;999.90;;;;;;;-2.27;47.40;99928.06;4916281;28;100943;-74
2022/04/01 02:20:33;;;;;;;1999.90;999.90;;;;;;;-2.34;47.69;99921.59;4921192;28;97230;-76
2022/04/01 02:23:00;;;;;;;1999.90;999.90;;;;;;;-2.38;47.73;99935.25;4934978;28;96886;-76
2022/04/01 02:25:29;;;;;;;1999.90;999.90;;;;;;;-2.40;47.02;99923.81;4913586;28;97620;-73
2022/04/01 02:27:57;;;;;;;1999.90;999.90;;;;;;;-2.39;47.02;99936.06;4904404;28;99127;-75
2022/04/01 02:30:25;;;;;;;1999.90;999.90;;;;;;;-2.39;47.45;99941.28;4925647;28;97588;-76
2022/04/01 02:33:14;;;;;;;1999.90;999.90;;;;;;;-2.39;47.72;99938.66;4919799;28;96819;-75
2022/04/01 02:35:45;;;;;;;1999.90;999.90;;;;;;;-2.38;47.32;99940.44;4910371;28;100684;-74
2022/04/01 02:38:12;;;;;;;1999.90;999.90;;;;;;;-2.34;47.56;99941.53;4919858;28;97814;-73
2022/04/01 02:40:41;;;;;;;1999.90;999.90;;;;;;;-1.80;47.27;99925.59;4914976;28;98535;-75
2022/04/01 02:43:09;;;;;;;1999.90;999.90;;;;;;;-1.51;48.39;99933.31;4906594;28;98218;-74
2022/04/01 02:45:40;;;;;;;1999.90;999.90;;;;;;;-1.33;48.23;99934.34;4901020;28;101195;-74
2022/04/01 02:48:08;;;;;;;1999.90;999.90;;;;;;;-1.75;48.69;99930.25;4901664;28;99648;-74
2022/04/01 02:50:57;;;;;;;1999.90;999.90;;;;;;;-1.91;48.09;99936.31;4913693;28;98268;-72
2022/04/01 02:53:26;;;;;;;1999.90;999.90;;;;;;;-1.99;48.31;99945.41;4914783;28;97248;-73
2022/04/01 02:55:54;;;;;;;1999.90;999.90;;;;;;;-2.03;49.15;99946.03;4918121;28;99765;-72
2022/04/01 02:58:23;;;;;;;1999.90;999.90;;;;;;;-2.09;48.59;99944.81;4909000;28;101613;-73
2022/04/01 03:00:52;;;;;;;1999.90;999.90;;;;;;;-2.11;48.71;99947.28;4916627;28;98510;-72
2022/04/01 03:03:21;;;;;;;1999.90;999.90;;;;;;;-2.18;48.93;99945.13;4903347;28;98533;-75
2022/04/01 03:05:49;;;;;;;1999.90;999.90;;;;;;;-2.20;48.15;99949.34;4908997;28;98728;-74
2022/04/01 03:08:18;;;;;;;1999.90;999.90;;;;;;;-2.24;48.79;99952.59;4909795;28;99082;-73
2022/04/01 03:10:46;;;;;;;1999.90;999.90;;;;;;;-2.28;48.95;99958.44;4916902;28;97056;-76
2022/04/01 03:13:15;;;;;;;1999.90;999.90;;;;;;;-2.29;48.61;99964.44;4918600;28;96812;-72
2022/04/01 03:16:06;;;;;;;1999.90;999.90;;;;;;;-2.34;48.36;99963.28;4916733;28;97807;-73
2022/04/01 03:18:41;;;;;;;1999.90;999.90;;;;;;;-2.36;48.14;99971.81;4910399;28;98115;-73
2022/04/01 03:21:11;;;;;;;1999.90;999.90;;;;;;;-2.42;48.26;99968.84;4909213;28;98559;-75
2022/04/01 03:23:44;;;;;;;1999.90;999.90;;;;;;;-2.48;48.33;99969.38;4899833;28;97855;-75
2022/04/01 03:26:16;;;;;;;1999.90;999.90;;;;;;;-2.55;48.13;99971.53;4914076;28;100832;-73
2022/04/01 03:28:51;;;;;;;1999.90;999.90;;;;;;;-2.06;47.19;99964.13;4899563;28;98220;-74
2022/04/01 03:31:21;;;;;;;1999.90;999.90;;;;;;;-1.82;48.07;99963.72;4914775;28;98233;-76
2022/04/01 03:33:49;;;;;;;1999.90;999.90;;;;;;;-2.24;48.41;99970.84;4918988;28;98561;-74
2022/04/01 03:36:18;;;;;;;1999.90;999.90;;;;;;;-2.35;48.83;99971.00;4920049;28;98841;-76
2022/04/01 03:38:51;;;;;;;1999.90;999.90;;;;;;;-2.49;50.93;99972.78;4903544;28;99636;-74
2022/04/01 03:41:24;;;;;;;1999.90;999.90;;;;;;;-2.53;48.85;99973.44;4901200;28;97561;-75
2022/04/01 03:43:54;;;;;;;1999.90;999.90;;;;;;;-2.58;48.75;99979.16;4924352;28;96884;-73
2022/04/01 03:46:24;;;;;;;1999.90;999.90;;;;;;;-2.09;48.20;99969.13;4924913;28;98879;-75
2022/04/01 03:48:56;;;;;;;1999.90;999.90;;;;;;;-2.40;48.60;99973.31;4920165;28;99345;-73
2022/04/01 03:51:25;;;;;;;1999.90;999.90;;;;;;;-2.48;48.95;99979.81;4937147;28;96959;-75
2022/04/01 03:53:57;;;;;;;1999.90;999.90;;;;;;;-2.55;49.29;99976.72;4918819;28;97625;-75
2022/04/01 03:56:39;;;;;;;1999.90;999.90;;;;;;;-2.58;48.85;99977.44;4909123;28;101316;-76
2022/04/01 03:59:26;;;;;;;1999.90;999.90;;;;;;;-2.60;48.99;99979.03;4919067;28;97711;-76
2022/04/01 04:02:13;;;;;;;1999.90;999.90;;;;;;;-2.65;49.37;99980.47;4915674;28;98836;-76
2022/04/01 04:04:41;;;;;;;1999.90;999.90;;;;;;;-2.72;49.51;99983.53;4915402;28;97781;-75
2022/04/01 04:07:10;;;;;;;1999.90;999.90;;;;;;;-2.77;49.51;99984.06;4926841;28;101566;-74
2022/04/01 04:09:46;;;;;;;1999.90;999.90;;;;;;;-2.79;49.21;99983.97;4900436;28;99034;-75
2022/04/01 04:12:15;;;;;;;1999.90;999.90;;;;;;;-2.27;48.46;99980.19;4912071;28;97966;-74
2022/04/01 04:14:48;;;;;;;1999.90;999.90;;;;;;;-1.99;47.96;99978.38;4905326;28;97655;-74
2022/04/01 04:17:20;;;;;;;1999.90;999.90;;;;;;;-2.38;49.05;99986.47;4918769;28;97607;-74
2022/04/01 04:19:52;;;;;;;1999.90;999.90;;;;;;;-2.53;48.70;99982.94;4919705;28;97916;-74
2022/04/01 04:22:23;;;;;;;1999.90;999.90;;;;;;;-2.60;48.72;99989.47;4912637;28;97387;-76
2022/04/01 04:24:59;;;;;;;1999.90;999.90;;;;;;;-2.67;49.45;99987.28;4927704;28;98017;-75
2022/04/01 04:27:29;;;;;;;1999.90;999.90;;;;;;;-2.68;49.75;99995.94;4914188;28;99229;-74
2022/04/01 04:30:08;;;;;;;1999.90;999.90;;;;;;;-2.69;50.08;99999.31;4901976;28;99576;-73
2022/04/01 04:33:04;;;;;;;1999.90;999.90;;;;;;;-2.71;49.51;99997.44;4926436;28;99041;-74
2022/04/01 04:35:36;;;;;;;1999.90;999.90;;;;;;;-2.69;49.35;99998.44;4916254;28;97615;-74
2022/04/01 04:38:05;;;;;;;1999.90;999.90;;;;;;;-2.69;48.82;100009.72;4915638;28;97919;-76
2022/04/01 04:40:35;;;;;;;1999.90;999.90;;;;;;;-2.77;50.33;100005.78;4911591;28;98808;-76
2022/04/01 04:43:11;;;;;;;1999.90;999.90;;;;;;;-2.77;49.09;100005.78;4911279;28;98155;-76
2022/04/01 04:45:39;;;;;;;1999.90;999.90;;;;;;;-2.76;48.82;100015.38;4937535;28;97324;-75
2022/04/01 04:48:07;;;;;;;1999.90;999.90;;;;;;;-2.74;48.29;100005.06;4920327;28;98033;-73
2022/04/01 04:50:36;;;;;;;1999.90;999.90;;;;;;;-2.76;48.97;100004.09;4904602;28;99969;-75
2022/04/01 04:53:04;;;;;;;1999.90;999.90;;;;;;;-2.80;49.58;100005.56;4901041;28;97927;-73
2022/04/01 04:55:35;;;;;;;1999.90;999.90;;;;;;;-2.80;49.06;100010.78;4915316;28;99205;-74
2022/04/01 04:58:09;;;;;;;1999.90;999.90;;;;;;;-2.78;48.48;100016.97;4916583;28;98132;-73
2022/04/01 05:00:53;;;;;;;1999.90;999.90;;;;;;;-2.85;48.90;100020.94;4915525;28;100626;-73
2022/04/01 05:03:48;;;;;;;1999.90;999.90;;;;;;;-2.89;48.88;100016.31;4918602;28;98544;-74
2022/04/01 05:06:37;;;;;;;1999.90;999.90;;;;;;;-2.89;48.88;100010.22;4925172;28;97963;-74
2022/04/01 05:09:26;;;;;;;1999.90;999.90;;;;;;;-2.91;48.52;100007.53;4915199;28;99408;-76
2022/04/01 05:12:09;;;;;;;1999.90;999.90;;;;;;;-2.92;48.56;100017.84;4907873;28;97900;-74
2022/04/01 05:15:08;;;;;;;1999.90;999.90;;;;;;;-2.91;48.75;100019.66;4910418;28;97247;-74
2022/04/01 05:17:37;;;;;;;1999.90;999.90;;;;;;;-2.89;48.68;100023.22;4911124;28;96708;-72
2022/04/01 05:20:15;;;;;;;1999.90;999.90;;;;;;;-2.88;48.27;100022.44;4917138;28;98867;-75
2022/04/01 05:22:50;;;;;;;1999.90;999.90;;;;;;;-2.87;48.99;100026.81;4894192;28;99127;-75
2022/04/01 05:25:20;;;;;;;1999.90;999.90;;;;;;;-2.86;48.81;100028.66;4899890;28;97977;-73
2022/04/01 05:27:52;;;;;;;1999.90;999.90;;;;;;;-2.86;49.38;100021.75;4900878;28;98890;-72
2022/04/01 05:30:29;;;;;;;1999.90;999.90;;;;;;;-2.85;48.46;100027.81;4917494;28;97742;-74
2022/04/01 05:33:06;;;;;;;1999.90;999.90;;;;;;;-2.83;48.29;100031.44;4914133;28;98355;-72
2022/04/01 05:35:37;;;;;;;1999.90;999.90;;;;;;;-2.80;48.08;100029.00;4925356;28;97634;-76
2022/04/01 05:38:07;;;;;;;1999.90;999.90;;;;;;;-2.33;48.02;100038.03;4926513;28;97616;-72
2022/04/01 05:40:38;;;;;;;1999.90;999.90;;;;;;;-2.59;48.29;100025.13;4907566;28;98595;-76
2022/04/01 05:43:11;;;;;;;1999.90;999.90;;;;;;;-2.70;48.61;100030.47;4925806;28;98648;-73
2022/04/01 05:45:39;;;;;;;1999.90;999.90;;;;;;;-2.73;48.58;100038.09;4916477;28;97597;-75
2022/04/01 05:48:13;;;;;;;1999.90;999.90;;;;;;;-2.26;47.95;100034.97;4899683;28;96844;-74
2022/04/01 05:50:43;;;;;;;1999.90;999.90;;;;;;;-2.02;47.10;100027.75;4898735;28;99374;-73
2022/04/01 05:53:11;;;;;;;1999.90;999.90;;;;;;;-1.82;47.14;100031.50;4912521;28;98315;-72
2022/04/01 05:55:46;;;;;;;1999.90;999.90;;;;;;;-2.24;47.86;100032.47;4918213;28;98087;-73
2022/04/01 05:58:15;;;;;;;1999.90;999.90;;;;;;;-2.36;47.26;100037.81;4917329;28;97750;-72
2022/04/01 06:00:47;;;;;;;1999.90;999.90;;;;;;;-2.43;47.28;100035.66;4916041;28;97723;-76
2022/04/01 06:03:33;;;;;;;1999.90;999.90;;;;;;;-2.50;47.67;100036.09;4915152;28;98065;-73
2022/04/01 06:06:04;;;;;;;1999.90;999.90;;;;;;;-2.52;47.53;100032.50;4917858;28;97569;-72
2022/04/01 06:08:44;;;;;;;1999.90;999.90;;;;;;;-2.51;47.21;100039.50;4927163;28;96756;-73
2022/04/01 06:11:26;;;;;;;1999.90;999.90;;;;;;;-2.05;46.14;100038.88;4906822;28;98648;-73
2022/04/01 06:14:20;;;;;;;1999.90;999.90;;;;;;;-1.82;44.95;100028.06;4912402;28;97826;-74
2022/04/01 06:17:09;;;;;;;1999.90;999.90;;;;;;;-2.20;45.22;100044.88;4917833;28;97371;-72
2022/04/01 06:19:44;;;;;;;1999.90;999.90;;;;;;;-2.31;45.38;100052.00;4918161;28;97596;-72
2022/04/01 06:22:15;;;;;;;1999.90;999.90;;;;;;;-2.37;46.00;100051.66;4900163;28;98283;-73
2022/04/01 06:24:52;;;;;;;1999.90;999.90;;;;;;;-2.37;45.80;100066.38;4900198;28;98116;-72
2022/04/01 06:27:22;;;;;;;1999.90;999.90;;;;;;;-1.93;44.29;100067.38;4899613;28;96965;-76
2022/04/01 06:30:00;;;;;;;1999.90;999.90;;;;;;;-1.68;42.70;100069.69;4915637;28;98968;-75
2022/04/01 06:32:38;;;;;;;1999.90;999.90;;;;;;;-1.51;42.03;100066.38;4905822;28;99279;-74
2022/04/01 06:35:14;;;;;;;1999.90;999.90;;;;;;;-1.39;40.97;100060.13;4917656;28;98202;-74
2022/04/01 06:37:56;;;;;;;1999.90;999.90;;;;;;;-1.29;40.08;100061.56;4904157;28;97374;-73
2022/04/01 06:40:29;;;;;;;1999.90;999.90;;;;;;;-1.22;40.06;100074.13;4914641;28;96844;-74
2022/04/01 06:42:58;;;;;;;1999.90;999.90;;;;;;;-1.19;39.12;100077.81;4902698;28;101099;-73
2022/04/01 06:46:03;;;;;;;1999.90;999.90;;;;;;;-1.13;39.24;100087.69;4888419;28;98105;-75
2022/04/01 06:48:43;;;;;;;1999.90;999.90;;;;;;;-1.06;38.85;100071.56;4919866;28;96930;-73
2022/04/01 06:51:30;;;;;;;1999.90;999.90;;;;;;;-1.02;38.90;100076.16;4924443;28;96875;-74
2022/04/01 06:54:16;;;;;;;1999.90;999.90;;;;;;;-0.97;38.55;100083.44;4918277;28;97647;-76
2022/04/01 06:57:05;;;;;;;1999.90;999.90;;;;;;;-0.94;38.41;100093.16;4916025;28;97619;-73
2022/04/01 06:59:56;;;;;;;1999.90;999.90;;;;;;;-0.92;39.01;100088.88;4915876;28;97982;-74
2022/04/01 07:02:25;;;;;;;1999.90;999.90;;;;;;;-0.95;38.27;100093.94;4912923;28;98082;-73
2022/04/01 07:04:53;;;;;;;1999.90;999.90;;;;;;;-0.96;38.16;100086.94;4916288;28;98494;-75
2022/04/01 07:07:21;;;;;;;1999.90;999.90;;;;;;;-0.93;38.16;100076.66;4917362;28;98145;-74
2022/04/01 07:09:51;;;;;;;1999.90;999.90;;;;;;;-0.88;37.76;100083.94;4917694;28;97342;-73
2022/04/01 07:12:19;;;;;;;1999.90;999.90;;;;;;;-0.82;37.70;100085.97;4914892;28;96919;-73
2022/04/01 07:14:46;;;;;;;1999.90;999.90;;;;;;;-0.81;37.53;100090.38;4915659;28;100478;-73
2022/04/01 07:17:16;;;;;;;1999.90;999.90;;;;;;;-0.78;37.38;100090.56;4916715;28;99786;-74
2022/04/01 07:19:46;;;;;;;1999.90;999.90;;;;;;;-0.73;37.56;100094.31;4926435;28;98089;-72
2022/04/01 07:22:14;;;;;;;1999.90;999.90;;;;;;;-0.71;37.25;100103.13;4915309;28;97850;-73
2022/04/01 07:24:41;;;;;;;1999.90;999.90;;;;;;;-0.75;37.22;100095.94;4913266;28;97724;-73
2022/04/01 07:27:10;;;;;;;1999.90;999.90;;;;;;;-0.74;37.09;100096.84;4910295;28;96887;-74
2022/04/01 07:29:37;;;;;;;1999.90;999.90;;;;;;;-0.73;37.30;100101.25;4914826;28;98733;-75
2022/04/01 07:34:53;;;;;;;1999.90;999.90;;;;;;;-0.74;37.17;100095.16;4915611;28;98106;-76
2022/04/01 07:37:23;;;;;;;1999.90;999.90;;;;;;;-0.71;37.16;100097.91;4916225;28;102161;-74
2022/04/01 07:40:13;;;;;;;1999.90;999.90;;;;;;;-0.65;37.24;100098.25;4913517;28;97831;-74
2022/04/01 07:42:41;;;;;;;1999.90;999.90;;;;;;;-0.63;36.97;100088.78;4916236;28;97031;-74
2022/04/01 07:45:10;;;;;;;1999.90;999.90;;;;;;;-0.58;36.95;100097.78;4914365;28;98940;-74
2022/04/01 07:47:38;;;;;;;1999.90;999.90;;;;;;;-0.55;36.99;100094.41;4911608;28;97557;-75
2022/04/01 07:50:08;;;;;;;1999.90;999.90;;;;;;;-0.52;36.51;100089.38;4916476;28;97348;-75
2022/04/01 07:52:40;;;;;;;1999.90;999.90;;;;;;;-0.48;36.67;100101.78;4917010;28;97003;-73
2022/04/01 07:55:09;;;;;;;1999.90;999.90;;;;;;;-0.48;36.75;100097.44;4909385;28;99683;-73
2022/04/01 07:57:37;;;;;;;1999.90;999.90;;;;;;;-0.43;36.99;100095.97;4918450;28;97827;-73
2022/04/01 08:00:11;;;;;;;1999.90;999.90;;;;;;;-0.91;37.99;100103.75;4915854;28;96826;-72
2022/04/01 08:02:42;;;;;;;1999.90;999.90;;;;;;;-1.09;38.52;100106.25;4918449;28;96904;-72
2022/04/01 08:05:11;;;;;;;1999.90;999.90;;;;;;;-0.78;38.11;100095.78;4912695;28;98615;-74
2022/04/01 08:07:39;;;;;;;1999.90;999.90;;;;;;;-1.11;38.36;100114.78;4918567;28;97632;-73
2022/04/01 08:10:07;;;;;;;1999.90;999.90;;;;;;;-1.25;39.23;100116.59;4915257;28;97024;-74
2022/04/01 08:12:42;;;;;;;1999.90;999.90;;;;;;;-1.34;39.45;100120.44;4925686;28;97223;-74
2022/04/01 08:15:11;;;;;;;1999.90;999.90;;;;;;;-1.44;39.24;100118.06;4920329;28;98949;-75
2022/04/01 08:17:39;;;;;;;1999.90;999.90;;;;;;;-1.49;39.33;100124.75;4917389;28;98447;-73
2022/04/01 08:20:08;;;;;;;1999.90;999.90;;;;;;;-1.52;40.13;100124.59;4915292;28;97304;-73
2022/04/01 08:22:37;;;;;;;1999.90;999.90;;;;;;;-1.53;39.46;100125.38;4914441;28;99371;-74
2022/04/01 08:25:07;;;;;;;1999.90;999.90;;;;;;;-1.51;39.57;100131.59;4915156;28;98946;-72
2022/04/01 08:27:35;;;;;;;1999.90;999.90;;;;;;;-1.52;39.57;100140.22;4916645;28;97589;-74
2022/04/01 08:30:03;;;;;;;1999.90;999.90;;;;;;;-1.53;40.30;100141.94;4918190;28;99742;-72
2022/04/01 08:32:32;;;;;;;1999.90;999.90;;;;;;;-1.56;39.94;100139.13;4916680;28;99337;-73
2022/04/01 08:35:00;;;;;;;1999.90;999.90;;;;;;;-1.52;40.32;100142.84;4890779;28;98098;-72
2022/04/01 08:37:28;;;;;;;1999.90;999.90;;;;;;;-1.50;40.21;100149.91;4916627;28;98993;-74
2022/04/01 08:40:00;;;;;;;1999.90;999.90;;;;;;;-1.48;39.63;100147.41;4917269;28;97870;-73
2022/04/01 08:42:27;;;;;;;1999.90;999.90;;;;;;;-1.46;40.01;100143.19;4914402;28;98468;-71
2022/04/01 08:44:55;;;;;;;1999.90;999.90;;;;;;;-1.44;39.58;100144.16;4918309;28;98202;-74
2022/04/01 08:47:23;;;;;;;1999.90;999.90;;;;;;;-1.41;40.04;100160.00;4916282;28;99632;-71
2022/04/01 08:49:55;;;;;;;1999.90;999.90;;;;;;;-1.37;40.17;100155.06;4918617;28;97231;-74
2022/04/01 08:52:22;;;;;;;1999.90;999.90;;;;;;;-1.33;40.35;100158.75;4914636;28;97173;-72
2022/04/01 08:54:50;;;;;;;1999.90;999.90;;;;;;;-1.32;39.53;100152.72;4917352;28;98803;-74
2022/04/01 08:57:21;;;;;;;1999.90;999.90;;;;;;;-1.31;39.83;100162.34;4899117;28;100981;-73
2022/04/01 08:59:49;;;;;;;1999.90;999.90;;;;;;;-1.26;39.90;100155.66;4916074;28;97647;-73
2022/04/01 09:02:17;;;;;;;1999.90;999.90;;;;;;;-1.21;39.65;100164.66;4914457;28;97756;-74
2022/04/01 09:04:51;;;;;;;1999.90;999.90;;;;;;;-1.15;40.20;100157.19;4917534;28;98727;-74
2022/04/01 09:07:19;;;;;;;1999.90;999.90;;;;;;;-1.10;40.02;100163.56;4919343;28;97971;-73
2022/04/01 09:09:46;;;;;;;1999.90;999.90;;;;;;;-1.07;39.44;100153.31;4916967;28;96821;-73
2022/04/01 09:12:15;;;;;;;1999.90;999.90;;;;;;;-1.02;39.62;100162.31;4918887;28;97006;-74
2022/04/01 09:14:51;;;;;;;1999.90;999.90;;;;;;;-0.99;39.53;100167.69;4918179;28;98214;-72
2022/04/01 09:17:19;;;;;;;1999.90;999.90;;;;;;;-0.92;39.84;100165.50;4916570;28;97580;-72
2022/04/01 09:19:50;;;;;;;1999.90;999.90;;;;;;;-0.87;39.11;100156.22;4912012;28;96827;-72
2022/04/01 09:22:20;;;;;;;1999.90;999.90;;;;;;;-0.82;39.22;100162.63;4914669;28;97737;-75
2022/04/01 09:24:55;;;;;;;1999.90;999.90;;;;;;;-0.75;39.50;100152.50;4916569;28;99386;-72
2022/04/01 09:27:41;;;;;;;1999.90;999.90;;;;;;;-0.69;37.72;100155.47;4915091;28;97644;-73
2022/04/01 09:30:13;;;;;;;1999.90;999.90;;;;;;;-0.63;39.01;100164.56;4904818;28;97653;-72
2022/04/01 09:32:43;;;;;;;1999.90;999.90;;;;;;;-0.58;39.30;100160.47;4909981;28;97186;-73
2022/04/01 09:35:12;;;;;;;1999.90;999.90;;;;;;;-0.53;38.68;100161.63;4912152;28;97737;-74
2022/04/01 09:37:42;;;;;;;1999.90;999.90;;;;;;;-0.49;38.67;100160.97;4918248;28;96897;-74
2022/04/01 09:40:12;;;;;;;1999.90;999.90;;;;;;;-0.45;38.63;100159.44;4930926;28;97503;-73
2022/04/01 09:42:40;;;;;;;1999.90;999.90;;;;;;;-0.41;38.82;100159.66;4912532;28;97714;-72
2022/04/01 09:45:08;;;;;;;1999.90;999.90;;;;;;;-0.34;38.54;100156.59;4914166;28;100827;-72
2022/04/01 09:47:38;;;;;;;1999.90;999.90;;;;;;;-0.30;38.91;100160.28;4915941;28;97845;-73
2022/04/01 09:50:10;;;;;;;1999.90;999.90;;;;;;;-0.26;38.48;100157.00;4916335;28;97714;-74
2022/04/01 09:52:38;;;;;;;1999.90;999.90;;;;;;;-0.22;38.13;100154.63;4915267;28;97886;-73
2022/04/01 09:55:07;;;;;;;1999.90;999.90;;;;;;;-0.18;38.54;100155.69;4911312;28;98529;-73
2022/04/01 09:57:35;;;;;;;1999.90;999.90;;;;;;;-0.14;38.57;100152.44;4921224;28;98862;-74
2022/04/01 10:00:05;;;;;;;1999.90;999.90;;;;;;;-0.10;38.40;100163.13;4919120;28;97301;-73
2022/04/01 10:02:40;;;;;;;1999.90;999.90;;;;;;;-0.09;38.36;100162.31;4918090;28;97368;-73
2022/04/01 10:05:09;;;;;;;1999.90;999.90;;;;;;;-0.06;38.01;100162.47;4917317;28;97977;-73
2022/04/01 10:07:37;;;;;;;1999.90;999.90;;;;;;;-0.06;37.65;100156.34;4920919;28;97827;-73
2022/04/01 10:10:06;;;;;;;1999.90;999.90;;;;;;;0.28;36.77;100148.59;4917917;28;97589;-73
2022/04/01 10:12:43;;;;;;;1999.90;999.90;;;;;;;0.10;35.66;100158.97;4919634;28;98213;-73
2022/04/01 10:15:11;;;;;;;1999.90;999.90;;;;;;;0.09;36.99;100159.78;4916312;28;98157;-74
2022/04/01 10:17:56;;;;;;;1999.90;999.90;;;;;;;0.40;35.09;100149.22;4931728;28;98387;-73
2022/04/01 10:20:25;;;;;;;1999.90;999.90;;;;;;;0.21;35.75;100150.84;4919488;28;98145;-74
2022/04/01 10:22:54;;;;;;;1999.90;999.90;;;;;;;0.51;34.66;100150.66;4913854;28;97889;-74
2022/04/01 10:25:27;;;;;;;1999.90;999.90;;;;;;;0.66;33.57;100154.06;4913354;28;97865;-75
2022/04/01 10:27:55;;;;;;;1999.90;999.90;;;;;;;0.47;34.38;100156.53;4917669;28;99116;-75
2022/04/01 10:30:25;;;;;;;1999.90;999.90;;;;;;;0.44;34.94;100156.41;4918957;28;98110;-74
2022/04/01 10:32:54;;;;;;;1999.90;999.90;;;;;;;0.74;33.98;100155.34;4915986;28;97642;-74
2022/04/01 10:35:25;;;;;;;1999.90;999.90;;;;;;;0.87;32.37;100157.72;4918380;28;98625;-73
2022/04/01 10:37:54;;;;;;;1999.90;999.90;;;;;;;0.60;33.44;100158.97;4917632;28;97585;-73
2022/04/01 10:40:25;;;;;;;1999.90;999.90;;;;;;;0.51;34.12;100158.50;4917584;28;97402;-73
2022/04/01 10:42:53;;;;;;;1999.90;999.90;;;;;;;0.47;34.17;100160.06;4918632;28;98346;-74
2022/04/01 10:45:24;;;;;;;1999.90;999.90;;;;;;;0.42;34.40;100160.66;4918146;28;98598;-72
2022/04/01 10:53:38;;;;;;;1999.90;999.90;;;;;;;0.40;34.48;100159.69;4915373;28;97042;-73
2022/04/01 10:56:31;;;;;;;1999.90;999.90;;;;;;;0.37;33.49;100164.75;4917001;28;99119;-70
2022/04/01 10:59:09;;;;;;;1999.90;999.90;;;;;;;0.41;34.49;100158.88;4920069;28;97564;-73
2022/04/01 11:01:38;;;;;;;1999.90;999.90;;;;;;;0.45;34.82;100164.31;4917130;28;97573;-73
2022/04/01 11:04:28;;;;;;;1999.90;999.90;;;;;;;0.41;32.98;100167.59;4918112;28;97307;-75
2022/04/01 11:06:58;;;;;;;1999.90;999.90;;;;;;;0.45;34.83;100159.09;4919252;28;98155;-76
2022/04/01 11:09:46;;;;;;;1999.90;999.90;;;;;;;0.41;31.73;100174.56;4919314;28;98423;-72
2022/04/01 11:12:34;;;;;;;1999.90;999.90;;;;;;;0.40;33.31;100168.44;4918425;28;96831;-73
2022/04/01 11:15:24;;;;;;;1999.90;999.90;;;;;;;0.43;31.94;100170.31;4912452;28;98033;-74
2022/04/01 11:18:11;;;;;;;1999.90;999.90;;;;;;;0.48;34.11;100169.75;4920114;28;97868;-72
2022/04/01 11:20:42;;;;;;;1999.90;999.90;;;;;;;0.53;34.75;100172.56;4911767;28;97735;-72
2022/04/01 11:23:12;;;;;;;1999.90;999.90;;;;;;;0.58;34.69;100171.09;4917852;28;98252;-72
2022/04/01 11:25:57;;;;;;;1999.90;999.90;;;;;;;0.61;33.05;100176.50;4926018;28;97506;-73